createdAt,value
2018-12-08T00:02:00.964Z,28.53
2018-12-08T00:07:30.465Z,25.10
2018-12-08T00:10:00.818Z,21.93
2018-12-08T00:12:48.747Z,20.17
2018-12-08T00:15:39.430Z,17.47
2018-12-08T00:18:29.951Z,22.90
2018-12-08T00:21:17.524Z,18.70
2018-12-08T00:23:56.541Z,24.40
2018-12-08T00:26:38.766Z,23.27
2018-12-08T00:32:30.543Z,21.90
2018-12-08T00:41:12.443Z,15.10
2018-12-08T00:44:11.291Z,18.80
2018-12-08T00:49:48.544Z,21.17
2018-12-08T00:52:33.546Z,8.73
2018-12-08T00:55:11.042Z,15.07
2018-12-08T01:00:51.240Z,12.70
2018-12-08T01:03:35.930Z,12.80
2018-12-08T01:06:08.200Z,10.47
2018-12-08T01:08:38.443Z,8.20
2018-12-08T01:11:09.744Z,10.43
2018-12-08T01:13:39.981Z,8.97
2018-12-08T01:16:09.889Z,7.47
2018-12-08T01:18:40.489Z,8.67
2018-12-08T01:23:49.168Z,6.70
2018-12-08T01:26:21.243Z,4.57
2018-12-08T01:28:51.688Z,6.30
2018-12-08T01:31:22.499Z,4.47
2018-12-08T01:33:52.854Z,4.47
2018-12-08T01:36:27.150Z,3.10
2018-12-08T01:38:59.106Z,3.17
2018-12-08T01:41:33.450Z,2.80
2018-12-08T01:44:05.953Z,2.43
2018-12-08T01:46:40.652Z,2.20
2018-12-08T01:49:11.179Z,2.13
2018-12-08T01:51:50.367Z,2.17
2018-12-08T01:54:23.572Z,2.77
2018-12-08T01:57:04.047Z,2.70
2018-12-08T01:59:37.009Z,2.43
2018-12-08T02:02:06.957Z,2.30
2018-12-08T02:04:43.750Z,2.00
2018-12-08T02:07:30.949Z,3.90
2018-12-08T02:10:01.531Z,2.53
2018-12-08T02:12:44.414Z,2.27
2018-12-08T02:15:14.974Z,2.73
2018-12-08T02:17:55.354Z,3.20
2018-12-08T02:20:26.126Z,3.70
2018-12-08T02:22:56.241Z,3.10
2018-12-08T02:25:27.059Z,3.63
2018-12-08T02:27:57.240Z,4.20
2018-12-08T02:30:28.128Z,3.30
2018-12-08T02:33:00.448Z,3.83
2018-12-08T02:35:30.961Z,3.40
2018-12-08T02:38:00.660Z,3.17
2018-12-08T02:40:31.151Z,3.80
2018-12-08T02:43:02.218Z,2.50
2018-12-08T02:45:31.852Z,4.43
2018-12-08T02:48:01.560Z,3.30
2018-12-08T02:50:32.186Z,3.10
2018-12-08T02:53:02.674Z,3.77
2018-12-08T02:55:32.951Z,3.93
2018-12-08T02:58:02.542Z,3.40
2018-12-08T03:00:32.232Z,3.70
2018-12-08T03:03:12.151Z,2.70
2018-12-08T03:05:43.074Z,3.67
2018-12-08T03:08:13.127Z,3.27
2018-12-08T03:10:42.996Z,2.70
2018-12-08T03:13:13.370Z,2.70
2018-12-08T03:15:43.656Z,3.07
2018-12-08T03:18:13.188Z,2.70
2018-12-08T03:20:42.925Z,3.07
2018-12-08T03:23:13.163Z,2.63
2018-12-08T03:25:43.159Z,2.60
2018-12-08T03:28:13.520Z,3.67
2018-12-08T03:30:45.431Z,3.80
2018-12-08T03:33:15.488Z,3.53
2018-12-08T03:35:45.926Z,4.37
2018-12-08T03:38:16.261Z,3.80
2018-12-08T03:40:50.410Z,2.57
2018-12-08T03:43:20.613Z,2.40
2018-12-08T03:45:50.703Z,3.00
2018-12-08T03:51:48.651Z,3.17
2018-12-08T03:54:19.806Z,2.57
2018-12-08T03:56:56.554Z,3.73
2018-12-08T03:59:28.578Z,3.97
2018-12-08T04:01:58.839Z,3.03
2018-12-08T04:04:30.977Z,4.20
2018-12-08T04:07:08.885Z,4.73
2018-12-08T04:09:40.906Z,4.30
2018-12-08T04:12:20.348Z,5.20
2018-12-08T04:14:54.668Z,4.40
2018-12-08T04:17:31.846Z,6.10
2018-12-08T04:20:03.443Z,5.50
2018-12-08T04:22:44.153Z,5.10
2018-12-08T04:25:16.785Z,3.60
2018-12-08T04:27:47.283Z,4.40
2018-12-08T04:30:16.828Z,4.33
2018-12-08T04:32:54.254Z,4.40
2018-12-08T04:35:24.370Z,5.10
2018-12-08T04:38:00.852Z,5.70
2018-12-08T04:40:33.960Z,5.23
2018-12-08T04:43:05.150Z,4.73
2018-12-08T04:45:34.781Z,5.33
2018-12-08T04:48:05.328Z,4.37
2018-12-08T04:50:36.093Z,4.90
2018-12-08T04:53:10.971Z,5.23
2018-12-08T04:55:41.667Z,3.73
2018-12-08T04:58:12.297Z,5.07
2018-12-08T05:00:42.445Z,5.00
2018-12-08T05:03:19.497Z,4.80
2018-12-08T05:05:50.813Z,5.67
2018-12-08T05:08:20.963Z,3.50
2018-12-08T05:10:50.695Z,5.47
2018-12-08T05:13:20.350Z,3.57
2018-12-08T05:15:51.258Z,5.07
2018-12-08T05:18:23.007Z,3.70
2018-12-08T05:20:53.120Z,4.17
2018-12-08T05:23:23.883Z,3.80
2018-12-08T05:25:53.704Z,3.57
2018-12-08T05:28:24.006Z,4.30
2018-12-08T05:30:53.775Z,5.20
2018-12-08T05:33:23.506Z,4.27
2018-12-08T05:35:54.533Z,4.70
2018-12-08T05:38:24.509Z,4.93
2018-12-08T05:40:54.380Z,5.50
2018-12-08T05:43:25.061Z,4.83
2018-12-08T05:45:54.853Z,4.63
2018-12-08T05:48:24.876Z,4.83
2018-12-08T05:50:55.100Z,3.70
2018-12-08T05:53:24.833Z,3.80
2018-12-08T05:55:55.812Z,4.03
2018-12-08T05:58:25.443Z,3.50
2018-12-08T06:00:55.236Z,3.60
2018-12-08T06:03:32.358Z,3.73
2018-12-08T06:06:04.078Z,6.50
2018-12-08T06:08:35.814Z,3.00
2018-12-08T06:11:05.869Z,3.30
2018-12-08T06:13:36.747Z,2.83
2018-12-08T06:16:06.596Z,4.73
2018-12-08T06:18:36.408Z,3.00
2018-12-08T06:21:06.269Z,2.70
2018-12-08T06:23:37.166Z,3.10
2018-12-08T06:26:09.077Z,2.50
2018-12-08T06:28:39.129Z,2.00
2018-12-08T06:31:09.124Z,2.43
2018-12-08T06:33:39.530Z,2.60
2018-12-08T06:36:09.287Z,2.03
2018-12-08T06:38:40.174Z,2.40
2018-12-08T06:41:10.271Z,2.33
2018-12-08T06:43:41.029Z,2.10
2018-12-08T06:46:11.462Z,2.20
2018-12-08T06:48:41.849Z,2.00
2018-12-08T06:51:11.608Z,2.03
2018-12-08T06:53:41.549Z,2.60
2018-12-08T06:56:11.486Z,3.03
2018-12-08T06:58:41.117Z,3.87
2018-12-08T07:01:12.098Z,3.03
2018-12-08T07:03:47.761Z,2.90
2018-12-08T07:06:19.523Z,2.80
2018-12-08T07:08:50.215Z,3.10
2018-12-08T07:11:21.009Z,3.30
2018-12-08T07:13:50.944Z,2.93
2018-12-08T07:16:24.099Z,2.27
2018-12-08T07:18:57.659Z,2.70
2018-12-08T07:21:32.962Z,3.50
2018-12-08T07:24:03.726Z,2.47
2018-12-08T07:26:35.356Z,2.73
2018-12-08T07:29:05.917Z,3.17
2018-12-08T07:34:52.812Z,3.70
2018-12-08T07:37:28.162Z,18.17
2018-12-08T07:40:01.139Z,2.97
2018-12-08T07:42:42.457Z,3.63
2018-12-08T07:45:15.717Z,5.23
2018-12-08T07:47:55.257Z,5.63
2018-12-08T07:50:28.377Z,3.73
2018-12-08T07:52:58.966Z,3.97
2018-12-08T07:55:30.336Z,3.20
2018-12-08T07:58:07.467Z,3.70
2018-12-08T08:00:39.342Z,3.60
2018-12-08T08:09:51.866Z,2.60
2018-12-08T08:12:22.223Z,2.60
2018-12-08T08:15:00.061Z,2.50
2018-12-08T08:20:17.287Z,3.67
2018-12-08T08:22:53.811Z,2.60
2018-12-08T08:25:23.556Z,2.60
2018-12-08T08:28:05.220Z,2.80
2018-12-08T08:30:35.541Z,3.10
2018-12-08T08:33:06.166Z,2.40
2018-12-08T08:35:36.678Z,2.57
2018-12-08T08:38:06.739Z,3.30
2018-12-08T08:40:37.103Z,4.00
2018-12-08T08:43:09.376Z,3.53
2018-12-08T08:45:39.441Z,5.97
2018-12-08T08:48:10.951Z,4.30
2018-12-08T08:50:40.786Z,3.53
2018-12-08T08:53:10.964Z,3.60
2018-12-08T08:55:41.693Z,4.00
2018-12-08T08:58:12.770Z,6.77
2018-12-08T09:00:42.988Z,6.47
2018-12-08T09:03:26.084Z,3.10
2018-12-08T09:05:56.351Z,3.17
2018-12-08T09:08:26.341Z,2.23
2018-12-08T09:10:57.956Z,2.50
2018-12-08T09:13:27.953Z,3.50
2018-12-08T09:15:58.092Z,3.57
2018-12-08T09:18:31.160Z,5.63
2018-12-08T09:21:01.473Z,6.27
2018-12-08T09:23:31.267Z,4.90
2018-12-08T09:26:00.966Z,2.70
2018-12-08T09:28:30.707Z,3.13
2018-12-08T09:31:00.636Z,2.83
2018-12-08T09:33:30.745Z,3.03
2018-12-08T09:36:00.449Z,2.70
2018-12-08T09:38:30.326Z,2.90
2018-12-08T09:41:00.098Z,3.83
2018-12-08T09:43:30.609Z,3.67
2018-12-08T09:46:00.286Z,3.07
2018-12-08T09:48:30.486Z,3.10
2018-12-08T09:51:01.018Z,7.93
2018-12-08T09:53:31.608Z,5.10
2018-12-08T09:56:01.331Z,2.93
2018-12-08T09:58:31.317Z,3.47
2018-12-08T10:01:01.324Z,3.07
2018-12-08T10:03:40.866Z,3.57
2018-12-08T10:06:13.884Z,4.43
2018-12-08T10:08:44.891Z,3.83
2018-12-08T10:11:15.852Z,3.57
2018-12-08T10:13:46.741Z,2.93
2018-12-08T10:16:21.877Z,3.37
2018-12-08T10:18:52.267Z,2.47
2018-12-08T10:21:22.235Z,3.30
2018-12-08T10:23:53.101Z,4.87
2018-12-08T10:29:38.793Z,3.47
2018-12-08T10:32:20.465Z,4.07
2018-12-08T10:34:53.480Z,3.50
2018-12-08T10:37:34.262Z,3.90
2018-12-08T10:40:09.405Z,3.93
2018-12-08T10:42:49.909Z,3.57
2018-12-08T10:45:22.385Z,3.57
2018-12-08T10:47:52.365Z,3.60
2018-12-08T10:50:22.319Z,4.07
2018-12-08T10:52:55.462Z,3.17
2018-12-08T10:55:25.417Z,3.60
2018-12-08T10:58:06.321Z,3.27
2018-12-08T11:00:42.012Z,2.40
2018-12-08T11:03:26.779Z,2.63
2018-12-08T11:05:57.329Z,2.50
2018-12-08T11:11:43.968Z,2.30
2018-12-08T11:14:19.794Z,2.60
2018-12-08T11:16:58.779Z,2.30
2018-12-08T11:19:35.974Z,2.10
2018-12-08T11:22:19.499Z,2.20
2018-12-08T11:24:54.449Z,2.30
2018-12-08T11:27:33.964Z,2.97
2018-12-08T11:36:49.614Z,2.80
2018-12-08T11:39:34.774Z,2.90
2018-12-08T11:42:13.166Z,2.50
2018-12-08T11:44:49.021Z,2.40
2018-12-08T11:47:26.463Z,6.10
2018-12-08T11:50:06.178Z,2.83
2018-12-08T11:52:48.970Z,4.33
2018-12-08T12:05:04.048Z,1.93
2018-12-08T12:07:40.816Z,1.80
2018-12-08T12:10:14.336Z,2.17
2018-12-08T12:13:00.971Z,2.30
2018-12-08T12:15:33.091Z,1.90
2018-12-08T12:18:03.295Z,2.10
2018-12-08T12:20:33.987Z,2.00
2018-12-08T12:23:08.256Z,1.80
2018-12-08T12:25:38.061Z,4.37
2018-12-08T12:28:08.433Z,4.57
2018-12-08T12:30:38.435Z,2.57
2018-12-08T12:33:09.158Z,5.83
2018-12-08T12:35:39.742Z,1.60
2018-12-08T12:38:15.205Z,2.10
2018-12-08T12:40:45.067Z,1.93
2018-12-08T12:43:14.695Z,1.93
2018-12-08T12:45:44.242Z,2.10
2018-12-08T12:48:14.988Z,2.10
2018-12-08T12:50:45.361Z,1.70
2018-12-08T12:53:16.612Z,1.70
2018-12-08T12:55:47.193Z,1.70
2018-12-08T12:58:17.091Z,1.90
2018-12-08T13:00:47.531Z,2.53
2018-12-08T13:03:22.871Z,4.07
2018-12-08T13:05:54.792Z,2.30
2018-12-08T13:08:25.050Z,2.50
2018-12-08T13:10:55.905Z,3.33
2018-12-08T13:13:26.842Z,2.37
2018-12-08T13:15:57.226Z,2.10
2018-12-08T13:18:28.360Z,2.00
2018-12-08T13:21:00.328Z,2.07
2018-12-08T13:23:31.592Z,2.73
2018-12-08T13:26:01.843Z,3.20
2018-12-08T13:28:32.243Z,4.33
2018-12-08T13:31:02.685Z,2.90
2018-12-08T13:33:33.688Z,1.90
2018-12-08T13:36:08.043Z,2.03
2018-12-08T13:38:38.211Z,1.90
2018-12-08T13:41:08.781Z,1.63
2018-12-08T13:43:40.236Z,2.30
2018-12-08T13:46:10.527Z,1.60
2018-12-08T13:48:43.806Z,5.93
2018-12-08T13:51:26.213Z,1.53
2018-12-08T13:53:56.881Z,1.87
2018-12-08T13:56:35.589Z,1.97
2018-12-08T13:59:08.843Z,1.60
2018-12-08T14:01:40.281Z,2.20
2018-12-08T14:04:23.025Z,2.03
2018-12-08T14:06:58.099Z,2.43
2018-12-08T14:09:29.219Z,3.53
2018-12-08T14:14:40.537Z,2.40
2018-12-08T14:17:22.571Z,2.83
2018-12-08T14:19:56.254Z,3.00
2018-12-08T14:22:42.087Z,2.90
2018-12-08T14:25:15.536Z,2.03
2018-12-08T14:27:59.093Z,2.10
2018-12-08T14:30:32.135Z,1.90
2018-12-08T14:33:12.891Z,1.60
2018-12-08T14:35:45.756Z,2.00
2018-12-08T14:38:16.873Z,2.20
2018-12-08T14:40:51.051Z,2.10
2018-12-08T14:43:21.709Z,2.53
2018-12-08T14:45:51.841Z,1.90
2018-12-08T14:48:22.658Z,1.93
2018-12-08T14:50:53.759Z,1.70
2018-12-08T14:53:26.138Z,2.33
2018-12-08T14:55:56.299Z,1.53
2018-12-08T14:58:27.515Z,1.70
2018-12-08T15:01:00.557Z,2.73
2018-12-08T15:03:36.735Z,3.43
2018-12-08T15:06:08.126Z,2.73
2018-12-08T15:08:38.258Z,3.40
2018-12-08T15:11:09.121Z,2.50
2018-12-08T15:13:39.921Z,2.70
2018-12-08T15:16:09.941Z,7.00
2018-12-08T15:18:40.536Z,25.43
2018-12-08T15:21:11.034Z,7.53
2018-12-08T15:23:42.706Z,7.10
2018-12-08T15:26:12.861Z,6.30
2018-12-08T15:28:43.382Z,4.60
2018-12-08T15:31:14.551Z,4.10
2018-12-08T15:33:45.843Z,3.93
2018-12-08T15:36:15.924Z,3.60
2018-12-08T15:38:45.868Z,4.37
2018-12-08T15:41:16.259Z,3.90
2018-12-08T15:43:46.689Z,3.60
2018-12-08T15:46:17.594Z,3.70
2018-12-08T15:48:47.952Z,4.50
2018-12-08T15:51:17.964Z,6.50
2018-12-08T15:53:48.206Z,4.07
2018-12-08T15:56:18.634Z,4.00
2018-12-08T15:58:51.157Z,3.27
2018-12-08T16:01:22.256Z,3.47
2018-12-08T16:04:02.000Z,3.63
2018-12-08T16:06:34.005Z,3.50
2018-12-08T16:09:05.249Z,4.23
2018-12-08T16:11:43.390Z,3.37
2018-12-08T16:14:17.630Z,3.70
2018-12-08T16:16:54.299Z,4.60
2018-12-08T16:19:27.590Z,4.87
2018-12-08T16:24:40.163Z,5.50
2018-12-08T16:27:19.085Z,10.47
2018-12-08T16:29:59.381Z,12.03
2018-12-08T16:32:41.782Z,7.97
2018-12-08T16:35:14.365Z,8.53
2018-12-08T16:37:45.569Z,7.07
2018-12-08T16:40:16.349Z,4.20
2018-12-08T16:42:58.274Z,4.97
2018-12-08T16:45:32.051Z,6.47
2018-12-08T16:48:16.488Z,9.57
2018-12-08T16:50:49.192Z,6.73
2018-12-08T16:53:19.365Z,9.23
2018-12-08T16:55:50.652Z,9.30
2018-12-08T16:58:21.530Z,8.17
2018-12-08T17:00:51.431Z,7.37
2018-12-08T17:03:26.189Z,6.10
2018-12-08T17:05:57.567Z,7.60
2018-12-08T17:08:28.802Z,8.10
2018-12-08T17:10:58.957Z,13.80
2018-12-08T17:13:30.121Z,14.70
2018-12-08T17:16:01.802Z,14.33
2018-12-08T17:18:34.911Z,17.17
2018-12-08T17:21:05.692Z,11.53
2018-12-08T17:23:36.889Z,10.70
2018-12-08T17:26:07.860Z,9.07
2018-12-08T17:28:38.299Z,9.80
2018-12-08T17:31:09.117Z,8.47
2018-12-08T17:33:39.678Z,17.00
2018-12-08T17:36:10.452Z,9.30
2018-12-08T17:38:41.502Z,10.20
2018-12-08T17:41:12.070Z,9.77
2018-12-08T17:43:42.721Z,8.77
2018-12-08T17:46:12.509Z,6.17
2018-12-08T17:48:42.570Z,10.03
2018-12-08T17:51:12.932Z,12.17
2018-12-08T17:53:43.365Z,19.27
2018-12-08T17:56:14.545Z,25.67
2018-12-08T17:58:44.839Z,9.20
2018-12-08T18:01:15.897Z,6.63
2018-12-08T18:03:56.080Z,5.20
2018-12-08T18:06:29.888Z,6.00
2018-12-08T18:09:00.452Z,8.73
2018-12-08T18:11:35.027Z,7.77
2018-12-08T18:14:06.125Z,4.00
2018-12-08T18:16:36.749Z,2.90
2018-12-08T18:19:07.247Z,3.57
2018-12-08T18:21:43.697Z,3.20
2018-12-08T18:24:18.362Z,2.97
2018-12-08T18:26:53.353Z,2.70
2018-12-08T18:29:26.567Z,2.57
2018-12-08T18:32:02.479Z,2.60
2018-12-08T18:34:33.126Z,1.57
2018-12-08T18:37:17.679Z,1.60
2018-12-08T18:39:49.069Z,1.60
2018-12-08T18:42:30.780Z,1.70
2018-12-08T18:45:01.001Z,1.80
2018-12-08T18:47:45.499Z,2.70
2018-12-08T18:50:17.451Z,1.87
2018-12-08T18:53:00.884Z,1.80
2018-12-08T18:55:32.192Z,1.80
2018-12-08T18:58:14.790Z,1.70
2018-12-08T19:00:46.079Z,1.77
2018-12-08T19:03:21.784Z,1.90
2018-12-08T19:05:55.109Z,1.60
2018-12-08T19:08:25.821Z,5.27
2018-12-08T19:10:56.615Z,10.80
2018-12-08T19:13:27.051Z,10.40
2018-12-08T19:15:57.812Z,6.03
2018-12-08T19:18:28.032Z,10.20
2018-12-08T19:20:58.335Z,9.30
2018-12-08T19:23:28.928Z,1.90
2018-12-08T19:25:59.074Z,1.70
2018-12-08T19:28:30.125Z,7.67
2018-12-08T19:31:00.860Z,9.77
2018-12-08T19:33:33.155Z,9.60
2018-12-08T19:36:03.551Z,6.07
2018-12-08T19:38:47.375Z,7.23
2018-12-08T19:41:36.994Z,3.97
2018-12-08T19:47:20.494Z,1.70
2018-12-08T19:49:51.672Z,2.03
2018-12-08T19:52:29.454Z,2.03
2018-12-08T19:55:05.109Z,2.10
2018-12-08T19:57:52.687Z,2.13
2018-12-08T20:00:28.883Z,2.10
2018-12-08T20:06:32.594Z,1.80
2018-12-08T20:09:08.316Z,1.80
2018-12-08T20:11:53.431Z,1.70
2018-12-08T20:14:31.001Z,1.90
2018-12-08T20:17:30.087Z,1.77
2018-12-08T20:20:27.486Z,1.83
2018-12-08T20:25:58.776Z,1.93
2018-12-08T20:28:44.609Z,2.00
2018-12-08T20:31:28.565Z,2.27
2018-12-08T20:34:00.520Z,2.10
2018-12-08T20:36:31.041Z,2.10
2018-12-08T20:39:01.567Z,2.60
2018-12-08T20:41:38.220Z,2.20
2018-12-08T20:44:08.614Z,1.90
2018-12-08T20:46:39.674Z,2.30
2018-12-08T20:49:09.604Z,2.07
2018-12-08T20:51:50.787Z,1.93
2018-12-08T20:54:22.085Z,2.47
2018-12-08T20:57:01.544Z,2.03
2018-12-08T20:59:32.900Z,2.03
2018-12-08T21:02:03.707Z,2.10
2018-12-08T21:04:46.095Z,1.80
2018-12-08T21:07:28.422Z,1.53
2018-12-08T21:10:03.058Z,1.60
2018-12-08T21:12:43.212Z,1.80
2018-12-08T21:15:15.947Z,4.93
2018-12-08T21:17:54.992Z,3.40
2018-12-08T21:23:39.926Z,1.80
2018-12-08T21:26:10.122Z,1.93
2018-12-08T21:28:41.712Z,1.90
2018-12-08T21:31:12.294Z,2.40
2018-12-08T21:33:43.157Z,1.80
2018-12-08T21:36:13.319Z,1.93
2018-12-08T21:38:43.835Z,3.27
2018-12-08T21:41:14.694Z,2.00
2018-12-08T21:43:44.968Z,1.83
2018-12-08T21:46:16.912Z,1.80
2018-12-08T21:48:47.756Z,1.70
2018-12-08T21:51:17.567Z,1.73
2018-12-08T21:53:47.640Z,1.47
2018-12-08T21:56:17.406Z,1.57
2018-12-08T21:58:47.444Z,1.53
2018-12-08T22:01:17.653Z,1.90
2018-12-08T22:03:57.124Z,1.60
2018-12-08T22:06:30.341Z,1.77
2018-12-08T22:09:01.236Z,1.57
2018-12-08T22:11:31.711Z,1.97
2018-12-08T22:17:26.799Z,1.50
2018-12-08T22:19:59.056Z,1.70
2018-12-08T22:22:36.011Z,1.27
2018-12-08T22:25:09.879Z,1.50
2018-12-08T22:27:52.591Z,1.23
2018-12-08T22:30:25.703Z,1.67
2018-12-08T22:32:56.348Z,1.50
2018-12-08T22:35:25.953Z,1.30
2018-12-08T22:38:03.268Z,1.70
2018-12-08T22:40:32.887Z,1.80
2018-12-08T22:43:13.511Z,1.90
2018-12-08T22:45:43.406Z,3.30
2018-12-08T22:48:13.591Z,2.70
2018-12-08T22:50:43.201Z,1.60
2018-12-08T22:53:12.796Z,1.83
2018-12-08T22:55:42.628Z,1.20
2018-12-08T22:58:23.861Z,1.70
2018-12-08T23:00:55.413Z,1.50
2018-12-08T23:03:28.953Z,1.70
2018-12-08T23:06:01.004Z,1.50
2018-12-08T23:08:30.646Z,1.50
2018-12-08T23:11:01.442Z,1.50
2018-12-08T23:13:31.642Z,1.60
2018-12-08T23:16:01.409Z,1.40
2018-12-08T23:18:31.056Z,2.80
2018-12-08T23:21:00.799Z,2.23
2018-12-08T23:23:30.485Z,1.50
2018-12-08T23:26:00.113Z,2.40
2018-12-08T23:28:29.918Z,2.20
2018-12-08T23:31:23.289Z,2.20
2018-12-08T23:37:41.892Z,2.00
2018-12-08T23:40:13.060Z,1.80
2018-12-08T23:42:47.800Z,1.60
2018-12-08T23:45:17.913Z,2.90
2018-12-08T23:48:00.387Z,3.90
2018-12-08T23:50:31.928Z,1.80
2018-12-08T23:53:01.751Z,1.90
2018-12-08T23:55:31.549Z,1.47
2018-12-08T23:58:01.928Z,2.03
